createdAt,value
2023-01-13T00:04:17.437Z,100165.87
2023-01-13T00:08:29.118Z,100158.53
2023-01-13T00:12:35.919Z,100159.20
2023-01-13T00:16:53.973Z,100152.41
2023-01-13T00:20:58.643Z,100147.93
2023-01-13T00:25:11.159Z,100145.31
2023-01-13T00:29:19.775Z,100150.92
2023-01-13T00:33:32.313Z,100145.70
2023-01-13T00:37:58.296Z,100137.35
2023-01-13T00:42:09.330Z,100130.59
2023-01-13T00:46:23.997Z,100120.67
2023-01-13T00:50:30.523Z,100116.83
2023-01-13T00:54:43.102Z,100117.70
2023-01-13T00:58:57.326Z,100107.95
2023-01-13T01:03:09.796Z,100102.02
2023-01-13T01:07:22.059Z,100100.61
2023-01-13T01:11:34.712Z,100095.55
2023-01-13T01:15:46.904Z,100088.39
2023-01-13T01:20:13.309Z,100088.27
2023-01-13T01:24:25.248Z,100088.10
2023-01-13T01:28:51.228Z,100077.79
2023-01-13T01:33:12.854Z,100069.61
2023-01-13T01:37:25.145Z,100066.86
2023-01-13T01:41:37.523Z,100058.84
2023-01-13T01:45:50.149Z,100053.09
2023-01-13T01:50:05.437Z,100048.56
2023-01-13T01:54:17.480Z,100049.09
2023-01-13T01:58:43.823Z,100044.20
2023-01-13T02:02:55.840Z,100039.69
2023-01-13T02:07:01.108Z,100036.04
2023-01-13T02:11:13.100Z,100029.78
2023-01-13T02:15:34.149Z,100030.83
2023-01-13T02:19:44.584Z,100031.50
2023-01-13T02:23:55.638Z,100029.41
2023-01-13T02:28:20.220Z,100026.99
2023-01-13T02:32:27.199Z,100021.98
2023-01-13T02:36:51.702Z,100014.85
2023-01-13T02:41:07.103Z,100008.77
2023-01-13T02:45:28.842Z,100000.25
2023-01-13T02:49:40.971Z,100005.50
2023-01-13T02:53:52.829Z,99999.02
2023-01-13T02:58:04.849Z,100000.73
2023-01-13T03:02:17.367Z,99995.92
2023-01-13T03:06:26.902Z,99987.98
2023-01-13T03:10:37.804Z,99987.61
2023-01-13T03:15:01.912Z,99983.41
2023-01-13T03:19:17.161Z,99980.44
2023-01-13T03:23:27.694Z,99977.11
2023-01-13T03:27:40.010Z,99974.33
2023-01-13T03:31:54.252Z,99975.87
2023-01-13T03:36:06.681Z,99974.32
2023-01-13T03:40:19.149Z,99970.47
2023-01-13T03:44:45.213Z,99966.64
2023-01-13T03:49:11.793Z,99962.10
2023-01-13T03:53:37.714Z,99960.36
2023-01-13T03:58:03.737Z,99956.02
2023-01-13T04:02:25.142Z,99955.33
2023-01-13T04:06:36.968Z,99948.02
2023-01-13T04:11:08.760Z,99942.83
2023-01-13T04:15:34.596Z,99942.50
2023-01-13T04:19:46.745Z,99943.35
2023-01-13T04:24:31.452Z,99940.92
2023-01-13T04:28:43.313Z,99941.45
2023-01-13T04:32:43.757Z,99939.19
2023-01-13T04:37:09.752Z,99935.69
2023-01-13T04:41:15.279Z,99931.70
2023-01-13T04:45:27.987Z,99933.94
2023-01-13T04:49:40.358Z,99936.69
2023-01-13T04:53:52.617Z,99942.06
2023-01-13T04:58:04.608Z,99941.88
2023-01-13T05:02:16.892Z,99940.14
2023-01-13T05:06:42.705Z,99935.98
2023-01-13T05:10:54.571Z,99934.94
2023-01-13T05:15:13.507Z,99934.42
2023-01-13T05:19:25.518Z,99934.61
2023-01-13T05:23:37.501Z,99937.73
2023-01-13T05:27:49.341Z,99932.70
2023-01-13T05:32:01.887Z,99933.04
2023-01-13T05:36:13.505Z,99934.40
2023-01-13T05:40:24.080Z,99941.02
2023-01-13T05:44:36.406Z,99941.55
2023-01-13T05:49:02.155Z,99947.98
2023-01-13T05:53:06.533Z,99949.89
2023-01-13T05:57:29.612Z,99952.85
2023-01-13T06:01:41.190Z,99954.06
2023-01-13T06:05:53.380Z,99955.80
2023-01-13T06:10:00.323Z,99960.16
2023-01-13T06:14:05.641Z,99965.54
2023-01-13T06:18:17.735Z,99968.48
2023-01-13T06:22:52.116Z,99971.28
2023-01-13T06:27:04.457Z,99971.13
2023-01-13T06:31:16.308Z,99967.12
2023-01-13T06:35:28.302Z,99964.88
2023-01-13T06:39:40.551Z,99971.17
2023-01-13T06:43:51.446Z,99975.35
2023-01-13T06:48:07.200Z,99980.94
2023-01-13T06:52:19.216Z,99979.79
2023-01-13T06:56:43.737Z,99982.10
2023-01-13T07:00:48.858Z,99990.30
2023-01-13T07:05:01.398Z,99984.23
2023-01-13T07:09:14.092Z,99990.66
2023-01-13T07:13:19.119Z,99983.16
2023-01-13T07:17:31.515Z,99986.45
2023-01-13T07:21:49.584Z,99985.58
2023-01-13T07:26:15.503Z,99983.63
2023-01-13T07:30:41.870Z,99983.92
2023-01-13T07:35:08.072Z,99996.26
2023-01-13T07:39:20.580Z,99999.91
2023-01-13T07:43:31.234Z,100006.71
2023-01-13T07:47:43.771Z,99999.06
2023-01-13T07:51:56.736Z,100001.52
2023-01-13T07:56:03.604Z,100006.91
2023-01-13T08:00:15.559Z,100012.50
2023-01-13T08:04:27.364Z,100015.50
2023-01-13T08:08:39.590Z,100024.20
2023-01-13T08:12:54.291Z,100028.27
2023-01-13T08:17:22.283Z,100028.48
2023-01-13T08:21:34.434Z,100033.23
2023-01-13T08:25:46.928Z,100042.99
2023-01-13T08:30:12.770Z,100045.94
2023-01-13T08:34:19.314Z,100048.91
2023-01-13T08:38:33.803Z,100050.11
2023-01-13T08:42:48.446Z,100046.45
2023-01-13T08:47:22.034Z,100046.82
2023-01-13T08:51:33.451Z,100055.16
2023-01-13T08:55:45.134Z,100057.21
2023-01-13T09:00:16.511Z,100062.04
2023-01-13T09:04:28.434Z,100068.61
2023-01-13T09:08:54.440Z,100083.19
2023-01-13T09:13:04.039Z,100086.31
2023-01-13T09:17:06.048Z,100086.66
2023-01-13T09:21:19.423Z,100090.30
2023-01-13T09:25:31.615Z,100088.06
2023-01-13T09:29:43.336Z,100090.88
2023-01-13T09:33:53.644Z,100092.46
2023-01-13T09:38:19.791Z,100111.67
2023-01-13T09:42:30.099Z,100117.61
2023-01-13T09:46:43.544Z,100115.41
2023-01-13T09:50:59.083Z,100108.60
2023-01-13T09:55:29.915Z,100107.89
2023-01-13T09:59:36.000Z,100107.39
2023-01-13T10:03:51.180Z,100094.68
2023-01-13T10:08:03.351Z,100091.04
2023-01-13T10:12:11.373Z,100086.38
2023-01-13T10:16:24.442Z,100086.57
2023-01-13T10:20:41.695Z,100084.55
2023-01-13T10:24:59.811Z,100087.69
2023-01-13T10:29:06.298Z,100089.25
2023-01-13T10:33:33.294Z,100093.44
2023-01-13T10:37:45.735Z,100093.25
2023-01-13T10:41:57.835Z,100088.90
2023-01-13T10:46:41.058Z,100084.23
2023-01-13T10:50:52.304Z,100093.36
2023-01-13T10:54:58.931Z,100084.30
2023-01-13T10:59:10.897Z,100089.39
2023-01-13T11:03:22.859Z,100090.45
2023-01-13T11:07:35.194Z,100091.17
2023-01-13T11:11:47.340Z,100096.61
2023-01-13T11:15:59.707Z,100094.37
2023-01-13T11:20:12.299Z,100089.89
2023-01-13T11:24:25.106Z,100078.75
2023-01-13T11:28:37.440Z,100074.93
2023-01-13T11:32:52.369Z,100071.46
2023-01-13T11:37:04.221Z,100070.08
2023-01-13T11:41:18.949Z,100078.96
2023-01-13T11:46:03.069Z,100093.27
2023-01-13T11:50:14.302Z,100105.45
2023-01-13T11:54:38.012Z,100109.44
2023-01-13T11:58:51.461Z,100098.97
2023-01-13T12:03:02.738Z,100102.79
2023-01-13T12:07:29.022Z,100101.88
2023-01-13T12:11:38.880Z,100103.27
2023-01-13T12:20:22.916Z,100110.41
2023-01-13T12:24:36.504Z,100108.84
2023-01-13T12:28:48.542Z,100109.14
2023-01-13T12:33:00.898Z,100088.77
2023-01-13T12:37:38.818Z,100088.73
2023-01-13T12:41:41.520Z,100100.75
2023-01-13T12:45:53.767Z,100106.34
2023-01-13T12:50:00.711Z,100118.00
2023-01-13T12:54:12.541Z,100119.02
2023-01-13T12:58:23.334Z,100106.98
2023-01-13T13:02:33.602Z,100104.36
2023-01-13T13:06:59.711Z,100106.66
2023-01-13T13:11:11.438Z,100109.10
2023-01-13T13:15:37.574Z,100108.21
2023-01-13T13:19:49.724Z,100117.59
2023-01-13T13:24:14.231Z,100118.08
2023-01-13T13:28:40.739Z,100117.00
2023-01-13T13:33:05.926Z,100127.23
2023-01-13T13:37:20.730Z,100120.96
2023-01-13T13:41:31.825Z,100124.73
2023-01-13T13:45:39.890Z,100145.98
2023-01-13T13:49:52.357Z,100152.39
2023-01-13T13:54:04.878Z,100147.69
2023-01-13T13:58:08.219Z,100137.55
2023-01-13T14:02:33.355Z,100143.80
2023-01-13T14:06:45.218Z,100137.52
2023-01-13T14:10:57.775Z,100136.64
2023-01-13T14:15:10.143Z,100134.39
2023-01-13T14:19:25.067Z,100131.95
2023-01-13T14:23:37.457Z,100128.33
2023-01-13T14:27:47.811Z,100129.76
2023-01-13T14:32:15.437Z,100135.67
2023-01-13T14:36:26.425Z,100129.62
2023-01-13T14:40:39.163Z,100135.89
2023-01-13T14:45:04.002Z,100138.33
2023-01-13T14:49:16.510Z,100132.41
2023-01-13T14:53:29.086Z,100124.57
2023-01-13T14:57:40.173Z,100132.77
2023-01-13T15:02:10.902Z,100131.69
2023-01-13T15:06:29.178Z,100130.61
2023-01-13T15:10:41.992Z,100140.65
2023-01-13T15:14:50.073Z,100130.89
2023-01-13T15:19:02.668Z,100134.36
2023-01-13T15:23:14.310Z,100147.58
2023-01-13T15:27:26.782Z,100142.66
2023-01-13T15:31:38.784Z,100151.33
2023-01-13T15:35:53.810Z,100153.34
2023-01-13T15:40:06.117Z,100156.61
2023-01-13T15:44:16.601Z,100162.88
2023-01-13T15:48:42.344Z,100166.15
2023-01-13T15:53:00.254Z,100176.94
2023-01-13T15:57:12.848Z,100174.66
2023-01-13T16:01:23.940Z,100173.77
2023-01-13T16:05:30.896Z,100178.95
2023-01-13T16:09:37.563Z,100181.39
2023-01-13T16:13:49.677Z,100178.95
2023-01-13T16:18:01.821Z,100189.19
2023-01-13T16:22:06.622Z,100187.73
2023-01-13T16:26:18.634Z,100186.98
2023-01-13T16:30:30.841Z,100194.04
2023-01-13T16:34:42.828Z,100199.94
2023-01-13T16:39:27.796Z,100192.15
2023-01-13T16:43:39.286Z,100196.05
2023-01-13T16:47:54.596Z,100201.29
2023-01-13T16:52:07.875Z,100231.17
2023-01-13T16:56:34.256Z,100221.52
2023-01-13T17:00:46.479Z,100226.61
2023-01-13T17:04:59.531Z,100221.91
2023-01-13T17:09:11.856Z,100210.05
2023-01-13T17:13:17.413Z,100228.84
2023-01-13T17:17:21.468Z,100221.50
2023-01-13T17:21:33.939Z,100234.68
2023-01-13T17:25:53.039Z,100238.60
2023-01-13T17:30:05.382Z,100237.61
2023-01-13T17:34:17.591Z,100240.58
2023-01-13T17:38:29.576Z,100244.05
2023-01-13T17:42:54.414Z,100235.33
2023-01-13T17:47:06.936Z,100228.43
2023-01-13T17:51:19.474Z,100235.61
2023-01-13T17:55:31.963Z,100242.34
2023-01-13T17:59:43.948Z,100239.87
2023-01-13T18:04:08.930Z,100235.12
2023-01-13T18:08:14.810Z,100230.98
2023-01-13T18:12:27.406Z,100229.77
2023-01-13T18:16:40.167Z,100239.54
2023-01-13T18:20:53.861Z,100238.01
2023-01-13T18:25:04.370Z,100245.41
2023-01-13T18:29:16.339Z,100248.92
2023-01-13T18:33:21.661Z,100255.41
2023-01-13T18:37:34.043Z,100265.99
2023-01-13T18:41:44.567Z,100278.95
2023-01-13T18:45:57.565Z,100282.70
2023-01-13T18:50:24.146Z,100272.58
2023-01-13T18:54:36.647Z,100250.84
2023-01-13T18:58:38.347Z,100257.39
2023-01-13T19:02:50.643Z,100261.02
2023-01-13T19:07:03.183Z,100267.86
2023-01-13T19:11:15.201Z,100265.86
2023-01-13T19:15:28.009Z,100272.19
2023-01-13T19:19:36.871Z,100269.48
2023-01-13T19:23:43.788Z,100271.77
2023-01-13T19:27:55.952Z,100271.58
2023-01-13T19:32:03.248Z,100268.23
2023-01-13T19:36:16.048Z,100266.95
2023-01-13T19:40:22.987Z,100268.59
2023-01-13T19:44:33.990Z,100267.45
2023-01-13T19:49:00.476Z,100272.63
2023-01-13T19:53:12.862Z,100267.70
2023-01-13T19:57:25.084Z,100264.58
2023-01-13T20:01:37.194Z,100263.92
2023-01-13T20:05:50.777Z,100265.30
2023-01-13T20:09:44.795Z,100264.27
2023-01-13T20:13:57.321Z,100264.96
2023-01-13T20:18:08.670Z,100278.20
2023-01-13T20:22:15.468Z,100277.33
2023-01-13T20:26:19.041Z,100279.05
2023-01-13T20:30:22.971Z,100279.50
2023-01-13T20:34:35.348Z,100275.16
2023-01-13T20:39:07.247Z,100281.92
2023-01-13T20:43:18.838Z,100286.42
2023-01-13T20:47:31.943Z,100288.45
2023-01-13T20:51:44.720Z,100288.60
2023-01-13T20:55:56.947Z,100290.31
2023-01-13T21:00:02.781Z,100287.25
2023-01-13T21:04:36.419Z,100282.92
2023-01-13T21:08:39.699Z,100278.10
2023-01-13T21:12:50.514Z,100273.70
2023-01-13T21:17:02.348Z,100280.27
2023-01-13T21:21:14.682Z,100285.61
2023-01-13T21:25:06.834Z,100284.19
2023-01-13T21:29:19.284Z,100283.83
2023-01-13T21:33:31.610Z,100288.97
2023-01-13T21:37:44.027Z,100292.78
2023-01-13T21:41:54.219Z,100296.95
2023-01-13T21:46:05.715Z,100298.88
2023-01-13T21:50:03.924Z,100304.13
2023-01-13T21:59:29.042Z,100300.21
2023-01-13T22:03:34.799Z,100300.39
2023-01-13T22:07:47.978Z,100304.33
2023-01-13T22:12:02.068Z,100300.66
2023-01-13T22:16:14.167Z,100301.70
2023-01-13T22:20:26.801Z,100308.02
2023-01-13T22:24:40.207Z,100308.42
2023-01-13T22:28:52.216Z,100312.77
2023-01-13T22:33:04.366Z,100310.70
2023-01-13T22:37:16.359Z,100312.33
2023-01-13T22:41:28.143Z,100311.11
2023-01-13T22:45:54.381Z,100318.95
2023-01-13T22:50:06.448Z,100321.35
2023-01-13T22:54:18.483Z,100322.67
2023-01-13T22:58:29.287Z,100319.90
2023-01-13T23:02:41.539Z,100316.45
2023-01-13T23:06:53.598Z,100310.04
2023-01-13T23:11:07.282Z,100312.34
2023-01-13T23:15:18.834Z,100311.47
2023-01-13T23:19:30.875Z,100313.42
2023-01-13T23:23:58.689Z,100318.63
2023-01-13T23:28:16.418Z,100319.31
2023-01-13T23:32:22.932Z,100320.52
2023-01-13T23:36:35.201Z,100318.06
2023-01-13T23:40:47.295Z,100316.84
2023-01-13T23:44:59.309Z,100314.11
2023-01-13T23:49:10.263Z,100313.64
2023-01-13T23:53:22.020Z,100313.13
2023-01-13T23:57:34.322Z,100307.98
